Latest Weather Observations for Weipa

IDQ60801

Issued at 6:05 pm EST Monday 22 September 2014 (issued every 30 minutes, with the page automatically refreshed every 10 minutes)

About weather observations | Map of weather stations | Latest weather observations for QLD | Other Formats
Station Details ID: 027045 Name: WEIPA AERO Lat: -12.68 Lon: 141.92 Height: 17.96 m
Data from the previous 72 hours. | See also: Recent months at Weipa
Date/Time
EST
Temp
°C
App
Temp
°C
Dew
Point
Rel
Hum
%
Delta-T
°C
Wind Press
QNH
hPa
Press
MSL
hPa
Rain
since 9 am
mm
Dir
 
Spd
km/h
Gust
km/h
Spd
kts
Gust
kts
22/06:00pm 27.5 30.3 20.4 65 4.7 WSW 6 11 3 6 1010.2 1010.1 0.0
22/05:30pm 28.6 30.3 19.3 57 6.0 W 9 17 5 9 1009.9 - 0.0
22/05:00pm 29.7 31.0 18.5 51 7.2 W 9 19 5 10 1009.9 - 0.0
22/04:30pm 30.2 31.0 18.2 48 7.7 W 11 19 6 10 1009.7 - 0.0
22/04:00pm 30.3 31.3 18.6 49 7.6 W 11 22 6 12 1009.7 - 0.0
22/03:30pm 30.5 31.1 18.7 49 7.6 W 13 24 7 13 1009.8 - 0.0
22/03:00pm 31.4 31.8 19.0 47 8.1 W 15 26 8 14 1009.8 1009.7 0.0
22/02:30pm 31.8 32.1 17.9 43 8.9 WSW 13 22 7 12 1010.0 - 0.0
22/02:00pm 32.8 32.4 14.1 32 11.4 ESE 9 20 5 11 1010.6 - 0.0
22/01:30pm 32.4 31.3 14.2 33 11.1 S 13 20 7 11 1011.5 - 0.0
22/01:00pm 32.7 30.8 14.1 32 11.3 ESE 17 30 9 16 1012.1 - 0.0
22/12:30pm 31.6 30.9 15.3 37 10.1 SSE 13 22 7 12 1012.9 - 0.0
22/12:00pm 31.5 31.7 15.8 38 9.8 E 9 30 5 16 1013.6 1013.5 0.0
22/11:30am 31.1 30.5 15.6 39 9.6 ESE 13 28 7 15 1014.2 - 0.0
22/11:00am 30.1 29.3 16.1 42 8.7 ESE 15 26 8 14 1014.7 - 0.0
22/10:30am 28.1 27.9 17.6 53 6.6 E 15 26 8 14 1015.1 - 0.0
22/10:00am 27.1 25.5 17.5 55 6.0 E 22 32 12 17 1015.4 - 0.0
22/09:30am 26.6 25.6 17.6 57 5.7 E 19 30 10 16 1015.6 - 0.0
22/09:00am 24.9 25.8 18.4 67 4.1 SE 11 17 6 9 1015.9 1015.8 0.0
22/08:30am 23.6 24.6 18.6 73 3.2 SE 11 17 6 9 1015.6 - 0.0
22/08:00am 22.1 23.8 18.6 80 2.2 SSE 7 13 4 7 1015.5 - 0.0
22/07:30am 20.5 22.4 18.6 89 1.2 S 6 9 3 5 1015.2 - 0.0
22/07:00am 18.1 20.1 16.9 93 0.7 SE 2 2 1 1 1014.8 - 0.0
22/06:30am 17.8 20.0 16.5 92 0.8 CALM 0 2 0 1 1014.4 - 0.0
22/06:00am 17.9 20.1 16.5 91 0.8 SSE 0 2 0 1 1014.0 1013.9 0.0
22/05:30am 18.1 20.0 16.7 91 0.8 S 2 4 1 2 1013.8 - 0.0
22/05:00am 18.3 20.5 16.6 90 1.0 CALM 0 2 0 1 1013.8 - 0.0
22/04:30am 18.7 21.1 16.9 89 1.1 CALM 0 2 0 1 1013.6 - 0.0
22/04:00am 19.7 21.4 18.1 90 1.0 SSE 6 9 3 5 1013.4 - 0.0
22/03:30am 19.5 20.9 17.3 87 1.3 SE 6 7 3 4 1013.4 - 0.0
22/03:00am 19.9 21.5 17.8 88 1.3 SSE 6 7 3 4 1013.4 1013.3 0.0
22/02:30am 19.7 21.1 17.4 86 1.4 SSE 6 9 3 5 1013.5 - 0.0
22/02:00am 19.0 20.8 16.4 85 1.6 SSE 2 6 1 3 1013.8 - 0.0
22/01:30am 19.3 21.3 16.9 86 1.5 S 2 6 1 3 1014.2 - 0.0
22/01:00am 19.9 22.1 16.5 81 2.0 CALM 0 2 0 1 1014.5 - 0.0
22/12:30am 20.5 22.8 16.7 79 2.3 CALM 0 0 0 0 1014.7 - 0.0
22/12:00am 21.8 22.9 16.5 72 3.2 E 6 6 3 3 1014.8 1014.7 0.0
 
Date/Time
EST
Temp
°C
App
Temp
°C
Dew
Point
Rel
Hum
%
Delta-T
°C
Wind Press
QNH
hPa
Press
MSL
hPa
Rain
since 9 am
mm
Dir
 
Spd
km/h
Gust
km/h
Spd
kts
Gust
kts
21/11:30pm 22.5 22.9 16.4 68 3.7 E 9 11 5 6 1015.2 - 0.0
21/11:00pm 22.6 23.5 16.0 66 4.0 E 6 9 3 5 1015.3 - 0.0
21/10:30pm 22.6 23.4 15.8 65 4.1 ESE 6 7 3 4 1015.4 - 0.0
21/10:00pm 23.1 23.8 16.2 65 4.2 E 7 11 4 6 1015.3 - 0.0
21/09:30pm 23.6 24.8 16.8 65 4.2 E 6 11 3 6 1015.1 - 0.0
21/09:00pm 23.9 27.3 20.2 80 2.4 SSW 2 4 1 2 1014.9 1014.8 0.0
21/08:30pm 23.6 26.3 19.4 77 2.7 WSW 4 6 2 3 1014.3 - 0.0
21/08:00pm 24.6 28.1 20.3 77 2.8 SSW 2 4 1 2 1013.9 - 0.0
21/07:30pm 25.6 29.3 20.8 75 3.2 WNW 2 6 1 3 1013.4 - 0.0
21/07:00pm 26.6 29.8 20.4 69 4.1 W 4 6 2 3 1012.9 - 0.0
21/06:30pm 29.0 27.9 12.1 35 9.8 E 9 15 5 8 1012.3 - 0.0
21/06:00pm 29.9 27.9 11.6 32 10.6 E 13 22 7 12 1011.8 1011.7 0.0
21/05:30pm 30.6 28.5 11.2 30 11.2 E 13 22 7 12 1011.7 - 0.0
21/05:00pm 30.9 28.3 12.1 31 11.0 E 17 26 9 14 1011.6 - 0.0
21/04:30pm 31.5 29.1 11.4 29 11.7 ENE 15 19 8 10 1011.4 - 0.0
21/04:00pm 32.4 30.0 12.7 30 11.7 ENE 17 22 9 12 1011.3 - 0.0
21/03:30pm 32.5 29.8 11.7 28 12.2 E 17 24 9 13 1011.4 - 0.0
21/03:00pm 32.1 28.7 11.1 27 12.2 E 20 28 11 15 1011.9 1011.8 0.0
21/02:30pm 31.7 30.1 12.9 31 11.2 E 13 24 7 13 1012.2 - 0.0
21/02:00pm 31.0 29.6 13.3 34 10.6 NE 13 20 7 11 1012.6 - 0.0
21/01:30pm 31.0 30.7 14.4 36 10.1 E 9 19 5 10 1013.1 - 0.0
21/01:00pm 29.9 29.4 15.0 40 9.1 ENE 11 19 6 10 1013.5 - 0.0
21/12:30pm 29.8 29.7 16.0 43 8.6 E 11 20 6 11 1014.0 - 0.0
21/12:00pm 28.8 28.1 16.5 47 7.7 ESE 15 20 8 11 1014.6 1014.5 0.0
21/11:30am 29.0 28.0 16.5 46 7.8 ESE 17 28 9 15 1015.1 - 0.0
21/11:00am 28.7 26.6 16.1 46 7.8 ESE 22 32 12 17 1015.6 - 0.0
21/10:30am 27.7 27.0 17.3 53 6.5 SE 17 22 9 12 1015.9 - 0.0
21/10:00am 26.4 25.5 17.7 58 5.5 E 19 32 10 17 1015.8 - 0.0
21/09:30am 25.8 26.4 18.7 65 4.5 SE 13 20 7 11 1016.0 - 0.0
21/09:00am 24.3 26.1 18.8 71 3.5 SE 7 13 4 7 1016.0 1015.9 0.0
21/08:30am 23.6 25.1 18.8 74 3.0 SE 9 13 5 7 1015.8 - 0.0
21/08:00am 22.8 24.7 18.6 77 2.6 SSE 6 9 3 5 1015.5 - 0.0
21/07:30am 22.2 23.9 18.1 77 2.6 S 6 7 3 4 1015.1 - 0.0
21/07:00am 21.0 23.7 17.7 81 2.0 CALM 0 2 0 1 1014.4 - 0.0
21/06:30am 20.6 22.4 17.3 81 2.0 S 4 6 2 3 1013.7 - 0.0
21/06:00am 20.4 22.9 17.3 82 1.9 CALM 0 2 0 1 1013.3 1013.2 0.0
21/05:30am 20.1 22.5 17.1 83 1.8 CALM 0 0 0 0 1013.0 - 0.0
21/05:00am 20.3 22.7 17.1 82 2.0 CALM 0 0 0 0 1012.7 - 0.0
21/04:30am 20.7 23.1 16.9 79 2.3 CALM 0 6 0 3 1012.5 - 0.0
21/04:00am 21.3 22.9 16.8 75 2.7 SE 4 6 2 3 1012.4 - 0.0
21/03:30am 21.4 23.4 17.0 76 2.7 SE 2 2 1 1 1012.6 - 0.0
21/03:00am 22.0 23.6 17.0 73 3.1 S 4 6 2 3 1012.8 1012.7 0.0
21/02:30am 21.9 24.3 17.1 74 2.9 CALM 0 4 0 2 1012.9 - 0.0
21/02:00am 22.2 24.5 16.7 71 3.4 CALM 0 4 0 2 1013.1 - 0.0
21/01:30am 22.5 24.9 16.9 70 3.4 CALM 0 4 0 2 1013.6 - 0.0
21/01:00am 23.5 24.5 16.4 64 4.3 ESE 6 11 3 6 1014.0 - 0.0
21/12:30am 23.6 23.6 15.3 59 5.0 E 9 13 5 7 1014.2 - 0.0
21/12:00am 23.1 23.6 14.0 56 5.3 E 4 7 2 4 1014.3 1014.2 0.0
 
Date/Time
EST
Temp
°C
App
Temp
°C
Dew
Point
Rel
Hum
%
Delta-T
°C
Wind Press
QNH
hPa
Press
MSL
hPa
Rain
since 9 am
mm
Dir
 
Spd
km/h
Gust
km/h
Spd
kts
Gust
kts
20/11:30pm 24.3 24.1 12.9 49 6.6 E 6 9 3 5 1014.7 - 0.0
20/11:00pm 25.0 24.6 12.4 45 7.2 E 6 9 3 5 1014.8 - 0.0
20/10:30pm 25.8 24.1 11.1 39 8.3 E 11 19 6 10 1014.6 - 0.0
20/10:00pm 25.3 24.4 12.6 45 7.3 E 9 15 5 8 1014.5 - 0.0
20/09:30pm 24.4 27.2 19.7 75 3.0 ENE 4 11 2 6 1014.3 - 0.0
20/09:00pm 24.8 27.7 19.8 74 3.2 NE 4 6 2 3 1014.2 1014.1 0.0
20/08:30pm 25.6 27.3 18.4 64 4.6 E 7 13 4 7 1013.9 - 0.0
20/08:00pm 25.2 29.3 21.6 80 2.4 N 2 6 1 3 1013.7 - 0.0
20/07:30pm 25.3 29.4 21.6 80 2.5 WNW 2 4 1 2 1013.2 - 0.0
20/07:00pm 25.4 28.6 21.2 77 2.8 WNW 6 9 3 5 1012.6 - 0.0
20/06:30pm 25.9 28.3 20.9 74 3.3 WNW 9 15 5 8 1012.1 - 0.0
20/06:00pm 27.1 28.8 20.2 66 4.5 NW 11 17 6 9 1011.5 1011.4 0.0
20/05:30pm 28.4 29.0 17.8 52 6.7 WNW 11 19 6 10 1011.0 - 0.0
20/05:00pm 28.7 29.1 17.3 50 7.2 W 11 20 6 11 1010.7 - 0.0
20/04:30pm 29.4 30.3 18.4 51 7.1 WSW 11 22 6 12 1010.3 - 0.0
20/04:00pm 29.1 29.2 18.3 52 6.9 W 15 22 8 12 1010.2 - 0.0
20/03:30pm 29.3 29.3 18.0 50 7.2 WSW 15 22 8 12 1010.3 - 0.0
20/03:00pm 28.5 28.5 19.8 59 5.7 WNW 19 26 10 14 1010.5 1010.4 0.0
20/02:30pm 30.1 30.1 19.8 54 6.8 W 19 32 10 17 1010.6 - 0.0
20/02:19pm 30.0 29.9 19.5 53 6.9 W 19 28 10 15 1010.7 - 0.0
20/02:00pm 31.4 32.5 18.1 45 8.6 W 9 19 5 10 1010.9 - 0.0
20/01:58pm 31.6 33.4 19.5 48 7.9 WNW 9 19 5 10 1011.0 - 0.0
20/01:30pm 34.2 30.2 8.1 20 14.6 NE 19 26 10 14 1011.3 - 0.0
20/01:00pm 34.2 30.1 8.5 20 14.5 SE 20 32 11 17 1012.0 - 0.0
20/12:30pm 33.2 31.5 11.2 26 12.9 SSE 11 24 6 13 1012.6 - 0.0
20/12:00pm 32.0 31.3 13.2 31 11.3 SE 9 17 5 9 1013.2 1013.1 0.0
20/11:30am 31.5 29.6 12.9 32 11.1 ESE 15 26 8 14 1013.8 - 0.0
20/11:00am 30.4 28.3 13.6 35 10.1 ESE 17 28 9 15 1014.4 - 0.0
20/10:30am 28.6 26.4 14.4 41 8.6 ESE 19 30 10 16 1015.0 - 0.0
20/10:00am 29.2 27.2 14.9 41 8.7 ESE 19 28 10 15 1015.2 - 0.0
20/09:30am 26.9 26.1 17.0 54 6.2 ESE 17 26 9 14 1015.4 - 0.0
20/09:00am 25.4 25.8 18.1 64 4.6 SE 13 22 7 12 1015.5 1015.4 0.0
20/08:30am 23.7 25.4 18.4 72 3.3 SSE 7 13 4 7 1015.5 - 0.0
20/08:00am 22.4 23.6 18.3 77 2.6 S 9 17 5 9 1015.4 - 0.0
20/07:30am 20.4 21.5 18.0 86 1.5 S 9 13 5 7 1015.0 - 0.0
20/07:00am 18.7 20.3 17.0 90 1.0 ESE 4 4 2 2 1014.2 - 0.0
20/06:30am 17.6 19.3 16.2 91 0.8 ESE 2 2 1 1 1014.0 - 0.0
20/06:00am 17.7 19.8 16.3 91 0.8 CALM 0 2 0 1 1013.8 1013.7 0.0
20/05:30am 18.2 20.4 16.6 90 1.0 CALM 0 0 0 0 1013.5 - 0.0
20/05:00am 18.6 21.1 17.3 92 0.8 CALM 0 2 0 1 1013.4 - 0.0
20/04:30am 18.6 20.8 16.6 88 1.2 CALM 0 2 0 1 1013.5 - 0.0
20/04:00am 19.0 21.3 16.8 87 1.3 CALM 0 4 0 2 1013.4 - 0.0
20/03:30am 19.0 21.1 17.1 89 1.2 S 2 6 1 3 1013.4 - 0.0
20/03:00am 19.7 22.3 17.6 88 1.3 CALM 0 2 0 1 1013.6 1013.5 0.0
20/02:30am 20.0 22.6 17.5 85 1.5 CALM 0 2 0 1 1013.9 - 0.0
20/02:00am 20.8 22.6 17.4 81 2.1 ESE 4 6 2 3 1014.1 - 0.0
20/01:30am 21.2 23.0 17.4 79 2.3 ESE 4 6 2 3 1014.3 - 0.0
20/01:00am 22.0 23.5 17.6 76 2.7 E 6 7 3 4 1014.8 - 0.0
20/12:30am 22.4 23.8 17.3 73 3.1 E 6 9 3 5 1015.1 - 0.0
20/12:00am 22.9 24.0 17.1 70 3.6 E 7 11 4 6 1015.3 1015.2 0.0
 
Date/Time
EST
Temp
°C
App
Temp
°C
Dew
Point
Rel
Hum
%
Delta-T
°C
Wind Press
QNH
hPa
Press
MSL
hPa
Rain
since 9 am
mm
Dir
 
Spd
km/h
Gust
km/h
Spd
kts
Gust
kts
19/11:30pm 23.4 23.5 16.6 65 4.2 E 11 22 6 12 1015.5 - 0.0
19/11:00pm 23.3 24.0 15.7 62 4.6 E 6 9 3 5 1015.7 - 0.0
19/10:30pm 23.9 24.3 15.2 58 5.2 E 7 11 4 6 1015.5 - 0.0
19/10:00pm 24.3 24.5 14.8 55 5.7 E 7 11 4 6 1015.3 - 0.0
19/09:30pm 24.6 24.5 15.9 58 5.3 E 11 15 6 8 1015.1 - 0.0
19/09:00pm 22.9 25.7 18.8 77 2.6 E 2 4 1 2 1014.8 1014.7 0.0
19/08:30pm 23.9 26.7 18.8 73 3.2 ENE 2 6 1 3 1014.4 - 0.0
19/08:00pm 24.0 26.8 18.8 72 3.3 N 2 6 1 3 1013.9 - 0.0
19/07:30pm 25.1 27.4 18.6 67 4.1 N 4 6 2 3 1013.4 - 0.0
19/07:00pm 25.6 27.5 18.6 65 4.5 NW 6 9 3 5 1012.7 - 0.0
19/06:30pm 26.3 28.0 18.5 62 5.0 NW 7 15 4 8 1012.2 - 0.0

Other Formats:

Comma delimited format used in spreadsheet applications
http://www.bom.gov.au/fwo/IDQ60801/IDQ60801.94170.axf

JavaScript Object Notation format (JSON) in row-major order
http://www.bom.gov.au/fwo/IDQ60801/IDQ60801.94170.json